Terminal Aerodrome Forecast
Issued by NWS Greer, SC

Home | Current Version | Previous Version | Text Only | Print | Product List | Glossary On
Versions: 1 2 3 4 5 6 7 8 9 10 11 12 13 14 15 16 17 18 19 20 21 22 23 24 25 26
859
FTUS42 KGSP 182339
TAFAVL
TAF
KAVL 182339Z 1900/1924 17010G18KT P6SM BKN070
     FM190400 16011G18KT P6SM VCSH OVC030
      TEMPO 1906/1907 4SM SHRA OVC015
     FM190700 16011G19KT 4SM -SHRA BR OVC017 WS020/18040KT
     FM191100 16012G20KT 3SM SHRA BR OVC011 WS020/18040KT PROB30
      1912/1916 2SM TSRA BR OVC010CB
     FM191600 17011G19KT 3SM SHRA BR OVC020 PROB30 1916/1917 2SM
      TSRA BR OVC015CB=

USA.gov is the U.S. government's official web portal to all federal, state and local government web resources and services.